Time;durP1;ratioP1;P1;durP2;ratioP2;P2;SDS_P1;SDS_P2;PMS_P1;PMS_P2;Temp;Humidity;BMP_temperature;BMP_pressure;BME280_temperature;BME280_humidity;BME280_pressure;Samples;Min_cycle;Max_cycle;Signal;HPM_P1;HPM_P2
2024/02/12 00:02:19;;;;;;;4.03;1.43;;;8.00;79.00;;;;;;5027852;28;20228;-71
2024/02/12 00:04:47;;;;;;;2.00;1.40;;;8.10;79.00;;;;;;5026132;28;20204;-71
2024/02/12 00:07:13;;;;;;;2.20;1.27;;;8.00;79.00;;;;;;5031402;28;20299;-71
2024/02/12 00:09:39;;;;;;;1.67;1.07;;;8.00;79.20;;;;;;5030955;28;20431;-70
2024/02/12 00:12:06;;;;;;;2.90;1.20;;;8.00;79.30;;;;;;5026293;28;20459;-71
2024/02/12 00:14:32;;;;;;;2.20;1.17;;;7.90;79.50;;;;;;5026025;28;20181;-71
2024/02/12 00:16:57;;;;;;;2.67;1.37;;;8.00;79.50;;;;;;5030130;28;20432;-70
2024/02/12 00:19:23;;;;;;;2.13;1.10;;;8.00;79.60;;;;;;5030500;28;20177;-71
2024/02/12 00:21:49;;;;;;;2.83;1.20;;;8.00;79.50;;;;;;5021790;28;20568;-70
2024/02/12 00:24:16;;;;;;;2.30;1.30;;;7.90;79.60;;;;;;5022292;28;20189;-71
2024/02/12 00:26:42;;;;;;;1.73;1.00;;;8.00;79.60;;;;;;5030773;28;20458;-71
2024/02/12 00:29:08;;;;;;;1.70;1.20;;;8.00;79.70;;;;;;5030128;28;20929;-70
2024/02/12 00:31:35;;;;;;;2.23;1.10;;;8.00;79.90;;;;;;5017140;28;20217;-71
2024/02/12 00:34:01;;;;;;;2.03;1.17;;;8.10;79.70;;;;;;5025544;28;20185;-71
2024/02/12 00:36:28;;;;;;;1.73;1.10;;;8.00;79.70;;;;;;5028398;28;20427;-70
2024/02/12 00:38:54;;;;;;;1.60;1.00;;;8.10;79.90;;;;;;5030201;28;20471;-70
2024/02/12 00:41:20;;;;;;;2.50;1.10;;;8.10;79.90;;;;;;5027622;28;21008;-71
2024/02/12 00:43:46;;;;;;;2.50;1.30;;;8.10;79.90;;;;;;5028428;28;20216;-72
2024/02/12 00:46:12;;;;;;;2.30;1.00;;;8.10;80.00;;;;;;5030331;28;20514;-72
2024/02/12 00:48:38;;;;;;;1.40;0.90;;;8.10;80.20;;;;;;5029965;28;20788;-70
2024/02/12 00:51:05;;;;;;;1.93;1.20;;;8.10;80.30;;;;;;5027697;28;20479;-70
2024/02/12 00:53:31;;;;;;;1.37;0.97;;;8.10;80.30;;;;;;5024655;28;20448;-70
2024/02/12 00:55:57;;;;;;;4.80;1.17;;;8.00;80.50;;;;;;5027658;28;20912;-71
2024/02/12 00:58:23;;;;;;;1.53;0.90;;;8.00;80.80;;;;;;5030293;28;20217;-70
2024/02/12 01:00:49;;;;;;;3.57;0.97;;;8.00;80.80;;;;;;5023012;28;20983;-70
2024/02/12 01:03:16;;;;;;;1.93;1.00;;;7.90;81.10;;;;;;5024722;28;20687;-72
2024/02/12 01:05:41;;;;;;;1.77;1.30;;;7.90;81.20;;;;;;5030127;28;20416;-71
2024/02/12 01:08:07;;;;;;;1.90;1.20;;;7.80;81.50;;;;;;5024508;28;20478;-70
2024/02/12 01:10:33;;;;;;;2.43;1.13;;;7.80;81.40;;;;;;5020604;28;20209;-72
2024/02/12 01:12:58;;;;;;;1.67;1.00;;;7.70;81.50;;;;;;5026360;28;20489;-71
2024/02/12 01:15:24;;;;;;;2.20;1.40;;;7.70;81.50;;;;;;5023613;28;20196;-72
2024/02/12 01:17:50;;;;;;;3.57;1.20;;;7.70;81.70;;;;;;5031923;28;20292;-71
2024/02/12 01:20:16;;;;;;;3.50;1.27;;;7.70;81.70;;;;;;5026595;28;20649;-71
2024/02/12 01:22:42;;;;;;;1.40;1.00;;;7.70;81.80;;;;;;5021173;28;20424;-71
2024/02/12 01:25:08;;;;;;;1.10;0.80;;;7.70;81.70;;;;;;5027807;28;20424;-70
2024/02/12 01:27:34;;;;;;;2.30;1.20;;;7.70;81.80;;;;;;5029243;28;20424;-71
2024/02/12 01:29:59;;;;;;;2.37;1.33;;;7.70;82.10;;;;;;5026745;28;20207;-71
2024/02/12 01:32:25;;;;;;;1.73;0.90;;;7.70;82.10;;;;;;5019873;28;20593;-72
2024/02/12 01:34:51;;;;;;;1.20;1.00;;;7.70;82.10;;;;;;5022376;28;20177;-72
2024/02/12 01:37:17;;;;;;;2.30;1.40;;;7.70;82.10;;;;;;5023575;28;20841;-73
2024/02/12 01:39:42;;;;;;;2.43;1.87;;;7.70;82.10;;;;;;5025566;28;20658;-70
2024/02/12 01:42:14;;;;;;;2.03;1.10;;;7.60;82.10;;;;;;5018595;28;20204;-73
2024/02/12 01:45:17;;;;;;;1.80;1.20;;;7.60;82.40;;;;;;5022896;28;20205;-72
2024/02/12 01:47:44;;;;;;;2.47;1.40;;;7.60;82.40;;;;;;5021332;28;20469;-71
2024/02/12 01:50:12;;;;;;;2.97;1.47;;;7.70;82.70;;;;;;5024230;28;20875;-71
2024/02/12 01:52:42;;;;;;;2.30;1.30;;;7.80;82.20;;;;;;5019233;28;20515;-72
2024/02/12 01:55:08;;;;;;;1.40;1.00;;;7.70;81.90;;;;;;5024222;28;20425;-72
2024/02/12 01:57:34;;;;;;;2.70;1.37;;;7.70;81.90;;;;;;5029678;28;20476;-71
2024/02/12 02:00:00;;;;;;;2.93;1.30;;;7.80;82.20;;;;;;5022426;28;20429;-72
2024/02/12 02:02:26;;;;;;;3.20;1.33;;;7.80;81.90;;;;;;5020893;28;20193;-72
2024/02/12 02:04:53;;;;;;;2.30;1.37;;;7.70;81.90;;;;;;5028314;28;20527;-72
2024/02/12 02:07:19;;;;;;;6.40;1.80;;;7.80;81.80;;;;;;5033241;28;20853;-72
2024/02/12 02:09:50;;;;;;;2.17;1.67;;;7.80;81.50;;;;;;5032852;28;20420;-72
2024/02/12 02:12:16;;;;;;;1.57;1.30;;;7.90;81.10;;;;;;5025038;28;20479;-72
2024/02/12 02:14:44;;;;;;;3.43;1.10;;;7.90;80.90;;;;;;5031424;28;20466;-72
2024/02/12 02:17:10;;;;;;;1.70;1.17;;;7.90;80.50;;;;;;5033319;28;20478;-71
2024/02/12 02:19:38;;;;;;;1.40;1.10;;;8.00;80.30;;;;;;5032500;28;20485;-72
2024/02/12 02:22:04;;;;;;;1.13;0.80;;;8.00;80.20;;;;;;5026310;28;21435;-71
2024/02/12 02:24:30;;;;;;;1.80;1.20;;;8.00;80.20;;;;;;5026576;28;20458;-71
2024/02/12 02:26:55;;;;;;;2.50;1.20;;;8.00;80.30;;;;;;5032859;28;20416;-71
2024/02/12 02:29:21;;;;;;;2.50;0.93;;;8.00;80.50;;;;;;5031953;28;20263;-72
2024/02/12 02:31:47;;;;;;;4.17;2.00;;;8.00;80.20;;;;;;5026821;28;20225;-72
2024/02/12 02:34:13;;;;;;;1.10;0.90;;;8.00;80.00;;;;;;5029089;28;20215;-72
2024/02/12 02:36:38;;;;;;;2.93;1.40;;;8.10;79.70;;;;;;5032945;28;20216;-70
2024/02/12 02:39:04;;;;;;;2.40;1.00;;;8.00;79.90;;;;;;5029141;28;20224;-72
2024/02/12 02:41:31;;;;;;;1.43;1.10;;;8.00;80.00;;;;;;5028764;28;20201;-72
2024/02/12 02:43:56;;;;;;;1.60;1.13;;;8.00;79.90;;;;;;5025846;28;20499;-72
2024/02/12 02:46:28;;;;;;;1.93;1.10;;;8.00;79.90;;;;;;5032075;28;20515;-72
2024/02/12 02:48:55;;;;;;;1.80;1.00;;;7.90;80.20;;;;;;5027877;28;20639;-72
2024/02/12 02:51:28;;;;;;;2.43;1.17;;;7.90;80.50;;;;;;5027886;28;20455;-72
2024/02/12 02:53:56;;;;;;;1.87;1.33;;;7.90;80.50;;;;;;5026775;28;20460;-71
2024/02/12 02:56:23;;;;;;;1.63;1.00;;;7.90;80.80;;;;;;5032228;28;20428;-71
2024/02/12 02:58:52;;;;;;;2.13;0.90;;;7.90;80.90;;;;;;5028860;28;20468;-72
2024/02/12 03:01:21;;;;;;;1.73;0.90;;;7.90;81.10;;;;;;5029047;28;20466;-71
2024/02/12 03:03:51;;;;;;;2.80;0.90;;;7.90;81.20;;;;;;5032913;28;21174;-70
2024/02/12 03:06:20;;;;;;;3.10;1.00;;;7.90;81.40;;;;;;5033443;28;20415;-71
2024/02/12 03:08:49;;;;;;;2.00;1.10;;;7.80;81.50;;;;;;5035313;28;20955;-71
2024/02/12 03:11:24;;;;;;;1.57;0.87;;;7.80;81.70;;;;;;5022386;28;20495;-71
2024/02/12 03:13:55;;;;;;;2.87;0.90;;;7.90;81.70;;;;;;5035879;28;20432;-71
2024/02/12 03:16:22;;;;;;;1.67;1.20;;;7.90;81.50;;;;;;5030927;28;20792;-71
2024/02/12 03:18:48;;;;;;;1.27;0.93;;;7.90;81.70;;;;;;5028795;28;21096;-70
2024/02/12 03:21:21;;;;;;;1.77;0.90;;;7.90;81.50;;;;;;5029276;28;20458;-71
2024/02/12 03:23:48;;;;;;;1.20;0.97;;;7.90;81.70;;;;;;5037506;28;20451;-70
2024/02/12 03:26:15;;;;;;;1.53;1.20;;;7.90;81.80;;;;;;5031834;28;20447;-71
2024/02/12 03:28:41;;;;;;;2.03;1.00;;;7.90;81.80;;;;;;5032853;28;20435;-71
2024/02/12 03:31:07;;;;;;;4.10;0.93;;;7.90;81.90;;;;;;5028104;28;20463;-72
2024/02/12 03:33:33;;;;;;;2.13;1.10;;;7.90;81.80;;;;;;5031113;28;20440;-72
2024/02/12 03:36:00;;;;;;;1.77;1.03;;;7.90;81.80;;;;;;5031726;28;20435;-70
2024/02/12 03:38:26;;;;;;;4.93;1.13;;;7.90;81.90;;;;;;5031837;28;20559;-70
2024/02/12 03:40:54;;;;;;;1.63;0.90;;;7.90;81.90;;;;;;5028789;28;20466;-71
2024/02/12 03:43:24;;;;;;;2.23;0.80;;;7.90;81.70;;;;;;5030450;28;20196;-72
2024/02/12 03:45:50;;;;;;;2.13;1.10;;;7.90;81.50;;;;;;5031138;28;20431;-72
2024/02/12 04:01:56;;;;;;;2.33;1.23;;;8.00;81.20;;;;;;5027515;28;20490;-72
2024/02/12 04:04:21;;;;;;;1.70;1.03;;;8.00;81.10;;;;;;5030857;28;20420;-72
2024/02/12 04:06:47;;;;;;;1.73;0.70;;;7.90;80.90;;;;;;5030050;28;20613;-71
2024/02/12 04:09:13;;;;;;;1.50;1.20;;;7.90;81.10;;;;;;5030987;28;20181;-72
2024/02/12 04:11:42;;;;;;;2.33;1.17;;;7.90;81.20;;;;;;5023008;28;20282;-72
2024/02/12 04:14:11;;;;;;;1.47;1.03;;;7.90;81.10;;;;;;5024762;28;20192;-72
2024/02/12 04:16:37;;;;;;;2.00;1.10;;;7.90;81.10;;;;;;5022477;28;20428;-72
2024/02/12 04:19:03;;;;;;;2.07;1.03;;;7.90;81.20;;;;;;5028682;28;20494;-72
2024/02/12 04:21:32;;;;;;;1.27;0.80;;;7.90;81.10;;;;;;5023404;28;20468;-72
2024/02/12 04:24:03;;;;;;;1.97;0.80;;;7.90;81.10;;;;;;5024067;28;20489;-72
2024/02/12 04:26:29;;;;;;;2.27;1.03;;;7.80;81.20;;;;;;5026307;28;20428;-73
2024/02/12 04:28:55;;;;;;;1.10;0.93;;;7.80;81.40;;;;;;5031152;28;20427;-71
2024/02/12 04:31:20;;;;;;;1.73;1.13;;;7.80;81.50;;;;;;5026767;28;20456;-72
2024/02/12 04:33:46;;;;;;;1.57;1.03;;;7.70;81.50;;;;;;5044052;28;20785;-72
2024/02/12 04:36:15;;;;;;;0.93;0.80;;;7.70;81.80;;;;;;5025355;28;20529;-72
2024/02/12 04:38:41;;;;;;;4.30;0.90;;;7.60;81.80;;;;;;5028151;28;20213;-71
2024/02/12 04:41:06;;;;;;;1.50;0.80;;;7.60;81.90;;;;;;5023165;28;20464;-71
2024/02/12 04:43:35;;;;;;;1.70;1.00;;;7.60;81.90;;;;;;5022520;28;20492;-70
2024/02/12 04:46:01;;;;;;;1.23;0.83;;;7.50;82.10;;;;;;5026189;28;20231;-72
2024/02/12 04:48:27;;;;;;;1.40;0.90;;;7.50;82.10;;;;;;5024517;28;20424;-71
2024/02/12 04:50:53;;;;;;;1.20;0.90;;;7.60;81.90;;;;;;5022844;28;20359;-70
2024/02/12 04:53:18;;;;;;;1.70;1.10;;;7.60;81.70;;;;;;5024835;28;20957;-72
2024/02/12 04:55:45;;;;;;;1.33;0.90;;;7.70;81.40;;;;;;5029798;28;20650;-72
2024/02/12 04:58:11;;;;;;;1.40;0.90;;;7.70;81.20;;;;;;5029986;28;20208;-70
2024/02/12 05:00:36;;;;;;;2.40;0.90;;;7.70;81.10;;;;;;5027005;28;20529;-70
2024/02/12 05:03:06;;;;;;;1.33;1.00;;;7.80;81.20;;;;;;5028602;28;20416;-71
2024/02/12 05:05:31;;;;;;;3.07;0.90;;;7.80;81.10;;;;;;5024491;28;20579;-71
2024/02/12 05:08:00;;;;;;;2.00;1.10;;;7.70;80.90;;;;;;5028446;28;20458;-72
2024/02/12 05:10:26;;;;;;;3.83;1.10;;;7.70;81.20;;;;;;5024998;28;20211;-71
2024/02/12 05:12:51;;;;;;;3.87;1.30;;;7.70;81.50;;;;;;5027636;28;20852;-71
2024/02/12 05:15:17;;;;;;;1.67;1.13;;;7.60;81.50;;;;;;5024426;28;20214;-71
2024/02/12 05:17:54;;;;;;;2.67;1.10;;;7.60;81.70;;;;;;5029338;28;20243;-71
2024/02/12 05:23:08;;;;;;;3.07;1.50;;;7.60;81.70;;;;;;5027264;28;20442;-71
2024/02/12 05:25:34;;;;;;;2.93;1.60;;;7.60;81.80;;;;;;5029064;28;20432;-73
2024/02/12 05:28:00;;;;;;;6.90;1.73;;;7.60;81.40;;;;;;5029511;28;20478;-71
2024/02/12 05:30:26;;;;;;;2.40;1.80;;;7.60;81.20;;;;;;5026379;28;20881;-71
2024/02/12 05:32:52;;;;;;;4.73;1.97;;;7.70;81.10;;;;;;5024676;28;20285;-71
2024/02/12 05:35:18;;;;;;;3.57;2.00;;;7.70;81.10;;;;;;5026921;28;20216;-71
2024/02/12 05:37:44;;;;;;;4.60;1.90;;;7.70;81.10;;;;;;5032124;28;20467;-71
2024/02/12 05:40:10;;;;;;;2.60;1.70;;;7.70;81.10;;;;;;5038499;28;20455;-71
2024/02/12 05:42:38;;;;;;;2.50;1.67;;;7.70;81.10;;;;;;5035632;28;20200;-72
2024/02/12 05:45:05;;;;;;;2.20;1.57;;;7.70;81.10;;;;;;5033738;28;20436;-72
2024/02/12 05:47:30;;;;;;;3.03;1.93;;;7.70;81.10;;;;;;5038695;28;20911;-71
2024/02/12 05:49:56;;;;;;;3.17;1.80;;;7.70;81.20;;;;;;5033781;28;20514;-72
2024/02/12 05:52:22;;;;;;;4.60;2.17;;;7.80;81.10;;;;;;5026251;28;20451;-71
2024/02/12 05:54:47;;;;;;;4.90;1.87;;;7.70;81.10;;;;;;5030537;28;20184;-71
2024/02/12 05:57:13;;;;;;;7.07;2.17;;;7.80;81.20;;;;;;5033990;28;20578;-71
2024/02/12 05:59:39;;;;;;;3.20;2.20;;;7.70;81.40;;;;;;5034401;28;20186;-71
2024/02/12 06:02:05;;;;;;;3.17;2.17;;;7.80;80.90;;;;;;5027811;28;20459;-71
2024/02/12 06:04:31;;;;;;;4.50;2.30;;;7.80;80.90;;;;;;5031299;28;20185;-71
2024/02/12 06:06:58;;;;;;;6.13;2.17;;;7.80;80.30;;;;;;5032851;28;20188;-72
2024/02/12 06:09:25;;;;;;;4.33;1.80;;;7.80;80.80;;;;;;5032923;28;21006;-72
2024/02/12 06:11:50;;;;;;;4.73;2.60;;;7.80;81.10;;;;;;5022839;28;20992;-72
2024/02/12 06:14:16;;;;;;;4.80;2.10;;;7.90;80.80;;;;;;5021438;28;20428;-71
2024/02/12 06:16:42;;;;;;;4.43;2.30;;;7.90;80.50;;;;;;5027542;28;20181;-72
2024/02/12 06:19:08;;;;;;;5.03;2.40;;;7.80;80.80;;;;;;5030739;28;20492;-71
2024/02/12 06:21:35;;;;;;;5.07;2.10;;;7.80;80.80;;;;;;5030187;28;20821;-72
2024/02/12 06:24:04;;;;;;;3.60;2.17;;;7.70;80.30;;;;;;5021721;28;20561;-71
2024/02/12 06:26:33;;;;;;;5.10;3.07;;;7.70;80.80;;;;;;5033652;28;20771;-71
2024/02/12 06:28:59;;;;;;;4.00;2.30;;;7.70;80.90;;;;;;5033630;28;20427;-72
2024/02/12 06:31:25;;;;;;;5.20;2.37;;;7.70;81.20;;;;;;5029289;28;20506;-72
2024/02/12 06:33:51;;;;;;;4.23;2.47;;;7.80;81.20;;;;;;5022695;28;20749;-72
2024/02/12 06:36:17;;;;;;;3.47;2.40;;;7.80;81.10;;;;;;5032720;28;20448;-71
2024/02/12 06:38:42;;;;;;;4.20;2.60;;;7.80;81.10;;;;;;5031968;28;20212;-71
2024/02/12 06:41:09;;;;;;;4.10;2.40;;;7.80;81.20;;;;;;5030207;28;20455;-72
2024/02/12 06:43:34;;;;;;;3.23;2.20;;;7.80;81.40;;;;;;5025314;28;20209;-72
2024/02/12 06:46:00;;;;;;;4.20;2.63;;;7.70;81.70;;;;;;5032651;28;20928;-71
2024/02/12 06:48:26;;;;;;;8.03;2.43;;;7.70;81.90;;;;;;5026650;28;20268;-72
2024/02/12 06:50:53;;;;;;;4.30;2.30;;;7.60;81.90;;;;;;5028360;28;20546;-72
2024/02/12 06:53:19;;;;;;;3.97;2.40;;;7.50;82.10;;;;;;5021478;28;20177;-72
2024/02/12 06:55:46;;;;;;;5.20;2.77;;;7.50;82.40;;;;;;5031437;28;20424;-71
2024/02/12 06:58:12;;;;;;;4.37;2.83;;;7.40;82.40;;;;;;5031994;28;20475;-71
2024/02/12 07:00:37;;;;;;;5.03;2.60;;;7.30;82.40;;;;;;5028973;28;20459;-71
2024/02/12 07:03:04;;;;;;;4.63;2.80;;;7.30;82.50;;;;;;5031661;28;20322;-71
2024/02/12 07:05:30;;;;;;;3.87;2.70;;;7.30;82.70;;;;;;5031273;28;20246;-72
2024/02/12 07:07:56;;;;;;;4.03;2.27;;;7.40;82.10;;;;;;5030574;28;20914;-72
2024/02/12 07:10:23;;;;;;;4.00;2.40;;;7.50;81.50;;;;;;5028650;28;20211;-72
2024/02/12 07:12:49;;;;;;;5.10;2.60;;;7.50;81.40;;;;;;5025884;28;20181;-72
2024/02/12 07:15:14;;;;;;;6.03;3.20;;;7.50;81.50;;;;;;5030891;28;20779;-72
2024/02/12 07:17:40;;;;;;;6.27;3.17;;;7.50;81.80;;;;;;5031805;28;20471;-72
2024/02/12 07:20:10;;;;;;;10.40;3.30;;;7.50;81.70;;;;;;5030827;28;20259;-72
2024/02/12 07:22:36;;;;;;;5.87;2.50;;;7.50;81.70;;;;;;5027302;28;20582;-72
2024/02/12 07:25:03;;;;;;;10.17;2.73;;;7.50;81.50;;;;;;5031991;28;20431;-73
2024/02/12 07:27:29;;;;;;;5.40;2.53;;;7.50;81.40;;;;;;5032398;28;20427;-72
2024/02/12 07:29:55;;;;;;;5.00;2.40;;;7.50;80.80;;;;;;5032956;28;20431;-71
2024/02/12 07:32:21;;;;;;;3.70;2.30;;;7.50;80.60;;;;;;5027348;28;20704;-73
2024/02/12 07:34:47;;;;;;;4.60;2.30;;;7.60;80.60;;;;;;5027557;28;20457;-71
2024/02/12 07:37:13;;;;;;;6.20;1.87;;;7.60;80.30;;;;;;5033685;28;20188;-72
2024/02/12 07:39:39;;;;;;;3.87;2.30;;;7.70;80.00;;;;;;5031907;28;20936;-71
2024/02/12 07:42:11;;;;;;;3.20;2.23;;;7.70;80.00;;;;;;5028653;28;20463;-72
2024/02/12 07:44:38;;;;;;;4.43;2.10;;;7.80;79.50;;;;;;5023726;28;20508;-73
2024/02/12 07:47:05;;;;;;;3.87;2.57;;;7.80;79.20;;;;;;5030428;28;20515;-71
2024/02/12 07:49:32;;;;;;;5.03;2.13;;;7.90;79.30;;;;;;5030916;28;20524;-72
2024/02/12 07:51:59;;;;;;;2.70;2.00;;;8.00;78.90;;;;;;5027043;28;20459;-73
2024/02/12 07:54:26;;;;;;;2.87;1.97;;;8.00;78.70;;;;;;5029737;28;20439;-73
2024/02/12 07:56:53;;;;;;;2.87;1.93;;;8.00;78.70;;;;;;5037664;28;20491;-71
2024/02/12 07:59:19;;;;;;;2.97;2.13;;;8.10;78.40;;;;;;5034068;28;20478;-71
2024/02/12 08:01:44;;;;;;;2.73;2.00;;;8.10;78.30;;;;;;5030510;28;20614;-74
2024/02/12 08:04:10;;;;;;;3.50;1.77;;;8.10;78.40;;;;;;5029223;28;20658;-74
2024/02/12 08:06:36;;;;;;;5.50;2.10;;;8.10;78.40;;;;;;5025389;28;20181;-71
2024/02/12 08:09:01;;;;;;;10.93;2.40;;;8.20;77.80;;;;;;5028338;28;20181;-72
2024/02/12 08:11:27;;;;;;;6.17;2.13;;;8.20;77.60;;;;;;5016019;28;20460;-72
2024/02/12 08:13:52;;;;;;;8.87;2.70;;;8.10;78.00;;;;;;5024682;28;20177;-72
2024/02/12 08:16:21;;;;;;;4.90;2.07;;;8.10;78.00;;;;;;5028998;28;21557;-72
2024/02/12 08:18:46;;;;;;;2.10;1.60;;;8.20;77.70;;;;;;5030968;28;20462;-72
2024/02/12 08:21:12;;;;;;;4.97;2.00;;;8.20;77.70;;;;;;5027320;28;20468;-72
2024/02/12 08:23:37;;;;;;;6.60;1.97;;;8.20;77.70;;;;;;5023440;28;20595;-72
2024/02/12 08:26:06;;;;;;;6.27;1.70;;;8.30;77.30;;;;;;5030631;28;20201;-72
2024/02/12 08:28:33;;;;;;;5.20;2.13;;;8.30;77.10;;;;;;5032051;28;20703;-73
2024/02/12 08:30:59;;;;;;;3.40;2.07;;;8.20;77.30;;;;;;5025379;28;20606;-72
2024/02/12 08:33:26;;;;;;;3.63;1.57;;;8.20;77.40;;;;;;5026216;28;20466;-73
2024/02/12 08:35:52;;;;;;;3.30;2.00;;;8.30;77.00;;;;;;5030680;28;20416;-72
2024/02/12 08:38:18;;;;;;;3.37;2.00;;;8.40;76.80;;;;;;5030963;28;20980;-72
2024/02/12 08:40:44;;;;;;;2.03;1.63;;;8.50;76.70;;;;;;5026858;28;20462;-72
2024/02/12 08:43:09;;;;;;;5.83;1.77;;;8.60;75.70;;;;;;5028743;28;20268;-72
2024/02/12 08:45:35;;;;;;;2.47;1.73;;;8.50;75.70;;;;;;5027810;28;20192;-70
2024/02/12 08:48:01;;;;;;;3.50;1.60;;;8.50;75.40;;;;;;5028793;28;20688;-72
2024/02/12 08:50:27;;;;;;;4.40;1.40;;;8.40;75.70;;;;;;5024447;28;20642;-72
2024/02/12 08:52:55;;;;;;;3.50;1.60;;;8.40;75.90;;;;;;5027579;28;20547;-71
2024/02/12 08:55:21;;;;;;;1.87;1.27;;;8.30;75.70;;;;;;5022828;28;20184;-72
2024/02/12 08:57:47;;;;;;;3.73;1.37;;;8.30;76.10;;;;;;5025639;28;20463;-72
2024/02/12 09:00:13;;;;;;;3.00;1.93;;;8.30;76.40;;;;;;5027296;28;20890;-72
2024/02/12 09:02:41;;;;;;;4.37;1.60;;;8.40;76.40;;;;;;5025048;28;20182;-74
2024/02/12 09:05:12;;;;;;;3.57;1.33;;;8.40;76.10;;;;;;5025734;28;20420;-71
2024/02/12 09:07:39;;;;;;;7.60;1.80;;;8.60;75.70;;;;;;5030024;28;20526;-73
2024/02/12 09:10:09;;;;;;;3.40;1.73;;;8.60;75.40;;;;;;5024638;28;20457;-73
2024/02/12 09:12:38;;;;;;;2.03;1.30;;;8.60;75.40;;;;;;5025501;28;20516;-73
2024/02/12 09:15:10;;;;;;;5.33;1.77;;;8.60;75.50;;;;;;5024366;28;20420;-72
2024/02/12 09:17:36;;;;;;;3.83;1.87;;;8.60;75.70;;;;;;5029192;28;20424;-72
2024/02/12 09:20:03;;;;;;;3.60;1.87;;;8.70;75.40;;;;;;5028329;28;20454;-73
2024/02/12 09:22:29;;;;;;;2.83;1.80;;;8.60;75.10;;;;;;5014851;28;20469;-72
2024/02/12 09:24:55;;;;;;;3.10;2.00;;;8.60;75.40;;;;;;5026887;28;20411;-72
2024/02/12 09:27:20;;;;;;;3.83;1.73;;;8.70;75.40;;;;;;5030043;28;20908;-73
2024/02/12 09:29:47;;;;;;;2.80;1.90;;;8.80;75.40;;;;;;5030448;28;20207;-71
2024/02/12 09:32:14;;;;;;;2.13;1.60;;;8.90;74.80;;;;;;5018823;28;20221;-71
2024/02/12 09:34:41;;;;;;;3.93;2.10;;;8.90;74.30;;;;;;5029391;28;20428;-72
2024/02/12 09:37:06;;;;;;;4.37;2.13;;;9.00;74.20;;;;;;5029720;28;20535;-71
2024/02/12 09:39:33;;;;;;;3.00;2.10;;;9.10;73.90;;;;;;5029294;28;21054;-72
2024/02/12 09:41:59;;;;;;;2.90;1.80;;;9.30;74.20;;;;;;5021211;28;20209;-72
2024/02/12 09:44:28;;;;;;;5.43;2.10;;;9.40;73.60;;;;;;5026577;28;20964;-73
2024/02/12 09:47:00;;;;;;;5.77;2.10;;;9.50;72.30;;;;;;5029100;28;20847;-72
2024/02/12 09:49:26;;;;;;;2.40;1.80;;;9.50;72.30;;;;;;5024346;28;20428;-71
2024/02/12 09:51:53;;;;;;;4.23;2.60;;;9.60;72.60;;;;;;5023188;28;20565;-72
2024/02/12 09:54:21;;;;;;;4.00;2.40;;;9.70;72.40;;;;;;5022289;28;20940;-72
2024/02/12 09:56:47;;;;;;;2.53;1.83;;;9.70;72.30;;;;;;5029424;28;20416;-71
2024/02/12 09:59:13;;;;;;;3.30;2.07;;;9.70;72.00;;;;;;5029125;28;20468;-72
2024/02/12 10:01:40;;;;;;;7.80;2.90;;;9.80;72.10;;;;;;5023988;28;20506;-72
2024/02/12 10:04:06;;;;;;;5.20;2.30;;;9.80;72.10;;;;;;5022630;28;20565;-71
2024/02/12 10:06:32;;;;;;;9.13;2.70;;;10.00;72.10;;;;;;5028529;28;20412;-72
2024/02/12 10:09:08;;;;;;;8.03;2.80;;;10.00;71.30;;;;;;5028916;28;20308;-72
2024/02/12 10:11:34;;;;;;;5.20;2.00;;;10.00;70.50;;;;;;5024982;28;20786;-72
2024/02/12 10:14:03;;;;;;;4.40;2.27;;;9.70;70.50;;;;;;5018970;28;20417;-71
2024/02/12 10:16:28;;;;;;;4.50;2.40;;;9.60;71.00;;;;;;5028640;28;20521;-72
2024/02/12 10:18:58;;;;;;;3.70;2.00;;;9.70;71.10;;;;;;5029042;28;20523;-72
2024/02/12 10:21:24;;;;;;;5.73;2.50;;;9.90;70.70;;;;;;5025058;28;20209;-71
2024/02/12 10:23:52;;;;;;;5.77;1.90;;;9.90;70.70;;;;;;5022676;28;20428;-72
2024/02/12 10:26:24;;;;;;;4.43;1.97;;;9.80;70.40;;;;;;5032074;28;20196;-72
2024/02/12 10:28:59;;;;;;;4.13;2.33;;;10.00;69.80;;;;;;5034418;28;20502;-73
2024/02/12 10:31:27;;;;;;;5.47;2.67;;;9.90;70.10;;;;;;5025411;28;20465;-72
2024/02/12 10:33:53;;;;;;;4.13;2.27;;;9.90;70.10;;;;;;5025352;28;20416;-72
2024/02/12 10:36:19;;;;;;;2.30;1.70;;;10.00;69.80;;;;;;5032783;28;20426;-72
2024/02/12 10:38:50;;;;;;;3.73;1.90;;;10.00;68.80;;;;;;5033070;28;20512;-73
2024/02/12 10:41:25;;;;;;;3.93;2.00;;;9.90;68.80;;;;;;5032903;28;20469;-72
2024/02/12 10:43:53;;;;;;;5.50;1.87;;;9.80;69.40;;;;;;5025712;28;20427;-72
2024/02/12 10:46:19;;;;;;;9.23;2.97;;;9.80;69.80;;;;;;5032357;28;20435;-72
2024/02/12 10:48:46;;;;;;;3.77;2.20;;;10.00;69.50;;;;;;5028143;28;20444;-72
2024/02/12 10:51:14;;;;;;;8.40;2.30;;;10.00;68.90;;;;;;5022782;28;20456;-73
2024/02/12 10:53:40;;;;;;;2.50;1.50;;;9.90;68.80;;;;;;5033103;28;20507;-73
2024/02/12 10:56:08;;;;;;;3.63;1.80;;;9.90;68.90;;;;;;5033359;28;20435;-73
2024/02/12 10:58:36;;;;;;;4.40;2.53;;;10.00;68.90;;;;;;5033099;28;20464;-72
2024/02/12 11:01:02;;;;;;;3.63;2.37;;;9.90;68.80;;;;;;5028969;28;20463;-73
2024/02/12 11:03:49;;;;;;;5.63;2.00;;;9.90;69.40;;;;;;5027453;28;20408;-72
2024/02/12 11:06:17;;;;;;;2.83;1.93;;;9.90;69.40;;;;;;5030397;28;20331;-73
2024/02/12 11:08:49;;;;;;;3.70;1.90;;;9.90;68.90;;;;;;5032118;28;20775;-71
2024/02/12 11:11:20;;;;;;;3.93;2.20;;;9.90;69.40;;;;;;5028218;28;20456;-72
2024/02/12 11:13:47;;;;;;;5.70;2.30;;;10.00;69.70;;;;;;5026312;28;20421;-72
2024/02/12 11:16:16;;;;;;;4.20;2.40;;;10.10;69.40;;;;;;5031784;28;20415;-71
2024/02/12 11:18:42;;;;;;;7.60;2.20;;;10.20;68.80;;;;;;5034047;28;20482;-71
2024/02/12 11:21:10;;;;;;;4.20;2.63;;;10.00;69.10;;;;;;5030222;28;20455;-72
2024/02/12 11:23:40;;;;;;;3.90;2.20;;;10.10;69.20;;;;;;5034731;28;20447;-71
2024/02/12 11:26:06;;;;;;;8.43;2.70;;;10.20;69.10;;;;;;5034274;28;20515;-71
2024/02/12 11:28:31;;;;;;;4.73;2.80;;;10.40;68.50;;;;;;5027969;28;20449;-71
2024/02/12 11:30:58;;;;;;;2.50;1.77;;;10.40;67.70;;;;;;5028121;28;21052;-70
2024/02/12 11:33:27;;;;;;;4.30;2.10;;;10.10;67.60;;;;;;5029078;28;20205;-72
2024/02/12 11:36:09;;;;;;;5.27;2.93;;;10.10;67.70;;;;;;5029631;28;20427;-72
2024/02/12 11:38:49;;;;;;;3.17;1.87;;;10.00;68.00;;;;;;5030792;28;20468;-71
2024/02/12 11:41:15;;;;;;;6.33;2.00;;;10.00;68.00;;;;;;5024808;28;20459;-71
2024/02/12 11:43:42;;;;;;;2.87;1.93;;;10.00;67.70;;;;;;5017483;28;20845;-71
2024/02/12 11:46:13;;;;;;;3.90;2.37;;;10.00;67.90;;;;;;5028883;28;20527;-72
2024/02/12 11:48:38;;;;;;;4.30;2.13;;;9.90;67.90;;;;;;5031378;28;20797;-72
2024/02/12 11:51:04;;;;;;;5.83;2.40;;;9.90;68.00;;;;;;5028581;28;20454;-72
2024/02/12 11:53:30;;;;;;;4.97;2.00;;;9.80;68.00;;;;;;5028149;28;20507;-72
2024/02/12 11:55:59;;;;;;;2.23;1.63;;;9.80;68.50;;;;;;5032019;28;20186;-72
2024/02/12 11:58:26;;;;;;;4.77;2.07;;;9.80;68.30;;;;;;5026645;28;20213;-72
2024/02/12 12:00:52;;;;;;;3.63;2.57;;;9.80;68.50;;;;;;5029551;28;20494;-71
2024/02/12 12:03:18;;;;;;;4.73;2.80;;;9.80;68.50;;;;;;5025207;28;20446;-72
2024/02/12 12:05:44;;;;;;;3.07;2.00;;;9.80;68.50;;;;;;5034021;28;20412;-72
2024/02/12 12:08:12;;;;;;;3.00;1.67;;;9.80;68.90;;;;;;5035985;28;20940;-71
2024/02/12 12:10:40;;;;;;;4.87;2.20;;;9.90;68.60;;;;;;5033026;28;20447;-73
2024/02/12 12:13:07;;;;;;;3.47;1.90;;;9.90;68.60;;;;;;5026254;28;21158;-72
2024/02/12 12:15:33;;;;;;;2.23;1.80;;;9.90;68.90;;;;;;5031089;28;20987;-72
2024/02/12 12:17:58;;;;;;;3.87;2.63;;;9.90;68.80;;;;;;5029414;28;20579;-72
2024/02/12 12:20:29;;;;;;;5.20;2.20;;;10.00;68.80;;;;;;5027147;28;20461;-72
2024/02/12 12:22:54;;;;;;;7.13;2.33;;;9.80;68.90;;;;;;5027146;28;20186;-71
2024/02/12 12:25:20;;;;;;;3.23;2.13;;;9.90;69.20;;;;;;5031184;28;20515;-72
2024/02/12 12:27:49;;;;;;;4.33;1.90;;;10.00;69.10;;;;;;5034216;28;20196;-72
2024/02/12 12:30:16;;;;;;;3.93;1.57;;;9.90;69.10;;;;;;5028706;28;20189;-72
2024/02/12 12:32:43;;;;;;;10.60;2.10;;;10.00;69.10;;;;;;5025427;28;20439;-72
2024/02/12 12:35:09;;;;;;;2.67;1.90;;;9.80;69.50;;;;;;5029196;28;20408;-72
2024/02/12 12:37:38;;;;;;;4.50;2.13;;;9.90;69.80;;;;;;5030459;28;20507;-73
2024/02/12 12:40:08;;;;;;;5.27;2.23;;;10.00;70.40;;;;;;5029804;28;20419;-72
2024/02/12 12:42:38;;;;;;;3.40;1.90;;;10.10;70.70;;;;;;5025498;28;20590;-72
2024/02/12 12:45:07;;;;;;;4.40;2.50;;;10.10;70.70;;;;;;5030075;28;20988;-72
2024/02/12 12:47:36;;;;;;;4.40;2.17;;;10.20;71.70;;;;;;5028754;28;20564;-72
2024/02/12 12:50:08;;;;;;;1.97;1.40;;;10.10;72.70;;;;;;5028034;28;20416;-71
2024/02/12 12:52:38;;;;;;;2.83;2.20;;;10.00;74.00;;;;;;5029258;28;20423;-71
2024/02/12 12:55:07;;;;;;;2.80;1.53;;;9.80;72.70;;;;;;5026278;28;20431;-72
2024/02/12 12:57:35;;;;;;;3.60;1.93;;;9.60;74.20;;;;;;5029750;28;20466;-72
2024/02/12 13:00:05;;;;;;;5.27;2.50;;;9.60;74.00;;;;;;5030344;28;20503;-71
2024/02/12 13:02:32;;;;;;;3.97;1.90;;;9.50;74.90;;;;;;5021172;28;20459;-71
2024/02/12 13:04:58;;;;;;;3.77;2.07;;;9.60;75.40;;;;;;5026482;28;20507;-72
2024/02/12 13:07:24;;;;;;;2.80;2.20;;;9.60;74.50;;;;;;5030377;28;20513;-73
2024/02/12 13:09:50;;;;;;;4.33;2.17;;;9.70;73.60;;;;;;5029951;28;20467;-71
2024/02/12 13:12:17;;;;;;;4.50;1.90;;;9.80;73.70;;;;;;5016091;28;20542;-71